createdAt,value
2023-03-27T00:01:27.852Z,98578.00
2023-03-27T00:03:55.905Z,98578.88
2023-03-27T00:06:25.326Z,98583.19
2023-03-27T00:08:52.902Z,98581.50
2023-03-27T00:11:22.019Z,98581.50
2023-03-27T00:13:51.403Z,98590.91
2023-03-27T00:16:23.185Z,98584.06
2023-03-27T00:18:50.194Z,98584.94
2023-03-27T00:21:17.277Z,98595.22
2023-03-27T00:23:44.276Z,98594.34
2023-03-27T00:26:12.279Z,98596.06
2023-03-27T00:28:39.351Z,98600.34
2023-03-27T00:31:10.845Z,98591.78
2023-03-27T00:33:38.006Z,98592.63
2023-03-27T00:36:05.351Z,98593.50
2023-03-27T00:38:33.949Z,98590.94
2023-03-27T00:41:01.117Z,98579.78
2023-03-27T00:43:34.180Z,98592.66
2023-03-27T00:46:27.946Z,98587.50
2023-03-27T00:48:55.807Z,98584.09
2023-03-27T00:51:24.287Z,98580.63
2023-03-27T00:53:51.518Z,98577.22
2023-03-27T00:56:18.629Z,98570.38
2023-03-27T00:58:58.627Z,98578.09
2023-03-27T01:01:27.814Z,98576.38
2023-03-27T01:03:56.296Z,98572.06
2023-03-27T01:06:23.315Z,98571.22
2023-03-27T01:08:51.103Z,98560.94
2023-03-27T01:11:48.804Z,98573.81
2023-03-27T01:14:37.994Z,98577.22
2023-03-27T01:17:33.182Z,98582.38
2023-03-27T01:20:20.390Z,98575.50
2023-03-27T01:23:58.632Z,98568.66
2023-03-27T01:26:42.234Z,98575.50
2023-03-27T01:29:26.491Z,98578.09
2023-03-27T01:32:33.368Z,98591.78
2023-03-27T01:35:40.703Z,98590.94
2023-03-27T01:38:42.364Z,98597.75
2023-03-27T01:41:19.897Z,98598.63
2023-03-27T01:43:56.583Z,98593.47
2023-03-27T01:46:31.684Z,98593.47
2023-03-27T01:49:05.754Z,98594.34
2023-03-27T01:51:37.765Z,98590.91
2023-03-27T01:54:12.217Z,98576.38
2023-03-27T01:56:46.223Z,98572.94
2023-03-27T01:59:16.675Z,98588.34
2023-03-27T02:01:48.601Z,98589.22
2023-03-27T02:04:19.949Z,98592.63
2023-03-27T02:06:52.916Z,98595.22
2023-03-27T02:09:26.949Z,98607.19
2023-03-27T02:11:59.212Z,98602.06
2023-03-27T02:14:31.165Z,98618.34
2023-03-27T02:17:02.399Z,98611.47
2023-03-27T02:19:33.640Z,98614.88
2023-03-27T02:22:01.042Z,98611.50
2023-03-27T02:24:28.942Z,98613.19
2023-03-27T02:27:02.050Z,98614.88
2023-03-27T02:29:54.137Z,98611.47
2023-03-27T02:32:53.890Z,98623.44
2023-03-27T02:35:45.266Z,98620.03
2023-03-27T02:38:19.345Z,98623.44
2023-03-27T02:41:16.326Z,98636.28
2023-03-27T02:44:25.154Z,98638.00
2023-03-27T02:47:25.014Z,98636.28
2023-03-27T02:49:56.909Z,98633.72
2023-03-27T02:52:28.464Z,98644.84
2023-03-27T02:55:16.600Z,98655.97
2023-03-27T02:57:52.203Z,98660.25
2023-03-27T03:00:34.478Z,98661.97
2023-03-27T03:03:18.038Z,98668.81
2023-03-27T03:05:55.291Z,98665.38
2023-03-27T03:08:22.396Z,98674.81
2023-03-27T03:10:49.849Z,98686.81
2023-03-27T03:13:18.135Z,98686.78
2023-03-27T03:15:50.642Z,98690.22
2023-03-27T03:18:17.624Z,98685.97
2023-03-27T03:20:46.131Z,98686.81
2023-03-27T03:23:13.060Z,98691.06
2023-03-27T03:25:39.889Z,98698.81
2023-03-27T03:28:08.311Z,98705.63
2023-03-27T03:30:39.043Z,98705.63
2023-03-27T03:33:11.000Z,98712.50
2023-03-27T03:35:38.907Z,98715.91
2023-03-27T03:38:12.791Z,98715.88
2023-03-27T03:40:45.842Z,98718.47
2023-03-27T03:43:13.057Z,98718.47
2023-03-27T03:45:39.948Z,98720.16
2023-03-27T03:48:07.165Z,98721.03
2023-03-27T03:50:33.999Z,98715.88
2023-03-27T03:53:00.921Z,98718.47
2023-03-27T03:55:27.804Z,98723.59
2023-03-27T03:57:55.680Z,98724.44
2023-03-27T04:00:25.859Z,98721.91
2023-03-27T04:02:56.925Z,98722.75
2023-03-27T04:05:24.472Z,98727.03
2023-03-27T04:07:53.757Z,98731.34
2023-03-27T04:10:41.647Z,98726.22
2023-03-27T04:13:22.071Z,98726.22
2023-03-27T04:16:02.022Z,98719.34
2023-03-27T04:18:39.367Z,98718.50
2023-03-27T04:21:16.096Z,98723.66
2023-03-27T04:23:45.256Z,98721.91
2023-03-27T04:26:16.227Z,98730.47
2023-03-27T04:29:04.151Z,98721.06
2023-03-27T04:31:51.523Z,98732.16
2023-03-27T04:34:38.502Z,98731.28
2023-03-27T04:37:09.706Z,98739.00
2023-03-27T04:39:43.034Z,98746.66
2023-03-27T04:42:10.687Z,98751.81
2023-03-27T04:44:38.605Z,98743.22
2023-03-27T04:47:08.783Z,98740.63
2023-03-27T04:49:43.809Z,98742.38
2023-03-27T04:52:19.215Z,98742.38
2023-03-27T04:54:46.782Z,98734.66
2023-03-27T04:57:15.821Z,98744.06
2023-03-27T04:59:42.992Z,98743.25
2023-03-27T05:02:31.253Z,98748.38
2023-03-27T05:05:09.110Z,98745.81
2023-03-27T05:07:37.685Z,98750.09
2023-03-27T05:10:06.959Z,98755.28
2023-03-27T05:12:34.858Z,98755.38
2023-03-27T05:15:06.258Z,98763.06
2023-03-27T05:17:41.300Z,98761.34
2023-03-27T05:20:12.421Z,98762.19
2023-03-27T05:22:40.092Z,98760.47
2023-03-27T05:25:17.487Z,98772.44
2023-03-27T05:27:49.094Z,98773.31
2023-03-27T05:30:18.641Z,98775.91
2023-03-27T05:32:49.090Z,98781.94
2023-03-27T05:35:24.405Z,98774.22
2023-03-27T05:37:54.786Z,98781.94
2023-03-27T05:40:27.721Z,98786.25
2023-03-27T05:42:56.347Z,98786.25
2023-03-27T05:45:27.548Z,98792.28
2023-03-27T05:47:59.950Z,98793.13
2023-03-27T05:50:30.076Z,98799.13
2023-03-27T05:53:01.229Z,98793.97
2023-03-27T05:55:34.535Z,98798.25
2023-03-27T05:58:01.869Z,98805.09
2023-03-27T06:00:32.047Z,98805.94
2023-03-27T06:03:01.127Z,98809.34
2023-03-27T06:05:48.943Z,98815.34
2023-03-27T06:08:17.049Z,98816.16
2023-03-27T06:10:45.789Z,98817.88
2023-03-27T06:13:21.741Z,98818.75
2023-03-27T06:15:58.432Z,98824.78
2023-03-27T06:18:45.506Z,98825.66
2023-03-27T06:21:15.200Z,98823.97
2023-03-27T06:23:42.706Z,98824.84
2023-03-27T06:26:12.214Z,98833.44
2023-03-27T06:28:39.396Z,98833.41
2023-03-27T06:31:06.963Z,98835.16
2023-03-27T06:33:40.734Z,98835.19
2023-03-27T06:36:18.193Z,98841.19
2023-03-27T06:38:47.861Z,98844.59
2023-03-27T06:41:14.880Z,98849.75
2023-03-27T06:44:01.728Z,98849.75
2023-03-27T06:46:44.618Z,98849.72
2023-03-27T06:49:32.228Z,98854.84
2023-03-27T06:52:05.960Z,98867.66
2023-03-27T06:54:32.837Z,98882.16
2023-03-27T06:57:01.726Z,98894.03
2023-03-27T06:59:37.156Z,98893.84
2023-03-27T07:02:04.386Z,98905.75
2023-03-27T07:05:03.770Z,98900.59
2023-03-27T07:07:41.475Z,98927.00
2023-03-27T07:10:10.665Z,98933.72
2023-03-27T07:12:38.292Z,98931.09
2023-03-27T07:15:07.986Z,98935.38
2023-03-27T07:17:48.024Z,98936.28
2023-03-27T07:20:18.558Z,98926.94
2023-03-27T07:22:46.109Z,98947.47
2023-03-27T07:25:27.101Z,98938.09
2023-03-27T07:27:59.730Z,98948.41
2023-03-27T07:30:27.020Z,98950.16
2023-03-27T07:32:54.591Z,98953.59
2023-03-27T07:35:22.015Z,98957.00
2023-03-27T07:38:09.841Z,98959.59
2023-03-27T07:40:57.680Z,98960.47
2023-03-27T07:43:44.441Z,98970.78
2023-03-27T07:46:11.502Z,98971.75
2023-03-27T07:48:39.212Z,98972.63
2023-03-27T07:51:13.879Z,98972.63
2023-03-27T07:53:43.698Z,98982.91
2023-03-27T07:56:26.717Z,98982.88
2023-03-27T07:59:13.739Z,98983.72
2023-03-27T08:01:42.407Z,98995.66
2023-03-27T08:04:09.409Z,98999.88
2023-03-27T08:06:39.308Z,99002.44
2023-03-27T08:09:13.336Z,99007.59
2023-03-27T08:11:41.466Z,99011.00
2023-03-27T08:14:09.946Z,99023.00
2023-03-27T08:16:38.135Z,99031.56
2023-03-27T08:19:06.358Z,99035.03
2023-03-27T08:21:39.843Z,99022.13
2023-03-27T08:24:07.464Z,99038.34
2023-03-27T08:26:41.924Z,99050.28
2023-03-27T08:29:12.256Z,99051.13
2023-03-27T08:31:40.198Z,99049.41
2023-03-27T08:34:07.314Z,99049.47
2023-03-27T08:36:45.019Z,99051.28
2023-03-27T08:39:12.975Z,99055.56
2023-03-27T08:41:55.193Z,99056.47
2023-03-27T08:44:30.074Z,99053.09
2023-03-27T08:47:22.855Z,99061.59
2023-03-27T08:49:58.705Z,99064.13
2023-03-27T08:52:32.434Z,99059.03
2023-03-27T08:55:10.791Z,99063.28
2023-03-27T08:57:44.045Z,99071.06
2023-03-27T09:00:25.673Z,99076.31
2023-03-27T09:03:33.290Z,99082.44
2023-03-27T09:06:11.663Z,99083.25
2023-03-27T09:09:03.501Z,99088.34
2023-03-27T09:11:40.748Z,99089.31
2023-03-27T09:14:37.684Z,99087.56
2023-03-27T09:17:14.943Z,99100.38
2023-03-27T09:19:57.177Z,99110.56
2023-03-27T09:22:37.567Z,99098.53
2023-03-27T09:25:32.776Z,99107.22
2023-03-27T09:28:21.666Z,99112.56
2023-03-27T09:30:55.537Z,99104.84
2023-03-27T09:33:27.925Z,99110.81
2023-03-27T09:35:56.164Z,99121.13
2023-03-27T09:38:28.383Z,99121.19
2023-03-27T09:41:03.127Z,99116.13
2023-03-27T09:43:54.667Z,99113.56
2023-03-27T09:46:23.889Z,99123.06
2023-03-27T09:49:00.630Z,99115.41
2023-03-27T09:51:51.789Z,99136.06
2023-03-27T09:54:51.262Z,99130.19
2023-03-27T09:57:18.624Z,99125.03
2023-03-27T09:59:59.285Z,99147.25
2023-03-27T10:02:29.270Z,99150.59
2023-03-27T10:05:12.255Z,99157.41
2023-03-27T10:07:41.605Z,99160.75
2023-03-27T10:10:32.623Z,99159.84
2023-03-27T10:13:20.982Z,99172.72
2023-03-27T10:16:02.236Z,99176.16
2023-03-27T10:18:42.479Z,99176.28
2023-03-27T10:21:34.438Z,99173.09
2023-03-27T10:24:07.119Z,99182.63
2023-03-27T10:26:54.371Z,99173.94
2023-03-27T10:29:35.060Z,99190.94
2023-03-27T10:32:05.300Z,99211.28
2023-03-27T10:34:57.471Z,99205.03
2023-03-27T10:37:50.141Z,99213.63
2023-03-27T10:40:39.092Z,99213.63
2023-03-27T10:43:16.772Z,99226.50
2023-03-27T10:46:06.455Z,99227.41
2023-03-27T10:49:17.342Z,99231.69
2023-03-27T10:52:07.617Z,99239.44
2023-03-27T10:55:30.587Z,99253.22
2023-03-27T10:58:00.635Z,99237.06
2023-03-27T11:00:38.158Z,99238.00
2023-03-27T11:03:18.133Z,99250.69
2023-03-27T11:05:48.841Z,99259.91
2023-03-27T11:08:54.222Z,99268.09
2023-03-27T11:11:31.023Z,99262.66
2023-03-27T11:14:03.878Z,99263.34
2023-03-27T11:16:39.388Z,99268.50
2023-03-27T11:19:45.932Z,99277.72
2023-03-27T11:23:12.552Z,99275.34
2023-03-27T11:26:01.738Z,99280.50
2023-03-27T11:28:41.320Z,99284.13
2023-03-27T11:31:49.505Z,99292.84
2023-03-27T11:34:57.843Z,99295.63
2023-03-27T11:37:48.863Z,99287.91
2023-03-27T11:40:26.957Z,99298.13
2023-03-27T11:43:01.491Z,99289.50
2023-03-27T11:45:41.228Z,99308.44
2023-03-27T11:48:48.070Z,99301.63
2023-03-27T11:51:32.025Z,99302.41
2023-03-27T11:54:09.738Z,99321.25
2023-03-27T11:56:58.132Z,99314.41
2023-03-27T12:00:04.828Z,99316.13
2023-03-27T12:02:59.727Z,99333.31
2023-03-27T12:06:07.513Z,99329.81
2023-03-27T12:09:07.373Z,99326.38
2023-03-27T12:12:13.642Z,99330.66
2023-03-27T12:15:15.684Z,99323.59
2023-03-27T12:17:51.629Z,99316.47
2023-03-27T12:20:51.916Z,99326.50
2023-03-27T12:23:43.191Z,99345.38
2023-03-27T12:27:12.906Z,99343.03
2023-03-27T12:30:07.766Z,99339.50
2023-03-27T12:32:55.376Z,99343.75
2023-03-27T12:35:24.827Z,99334.09
2023-03-27T12:38:02.304Z,99351.19
2023-03-27T12:40:39.273Z,99351.19
2023-03-27T12:43:31.748Z,99352.91
2023-03-27T12:46:37.543Z,99334.03
2023-03-27T12:49:47.973Z,99364.34
2023-03-27T12:52:27.042Z,99362.34
2023-03-27T12:55:33.823Z,99364.31
2023-03-27T12:58:32.448Z,99377.97
2023-03-27T13:01:52.904Z,99378.38
2023-03-27T13:05:08.681Z,99376.59
2023-03-27T13:08:11.094Z,99380.94
2023-03-27T13:11:14.682Z,99403.81
2023-03-27T13:14:21.578Z,99390.81
2023-03-27T13:16:58.830Z,99414.63
2023-03-27T13:19:58.567Z,99407.66
2023-03-27T13:22:56.919Z,99402.34
2023-03-27T13:25:33.078Z,99412.53
2023-03-27T13:28:34.496Z,99419.19
2023-03-27T13:31:12.393Z,99421.00
2023-03-27T13:34:32.883Z,99429.75
2023-03-27T13:37:43.146Z,99424.69
2023-03-27T13:40:31.179Z,99435.81
2023-03-27T13:43:25.352Z,99426.47
2023-03-27T13:46:01.480Z,99434.97
2023-03-27T13:49:19.435Z,99433.06
2023-03-27T13:52:26.387Z,99435.53
2023-03-27T13:55:14.189Z,99441.75
2023-03-27T13:58:38.645Z,99439.44
2023-03-27T14:01:45.603Z,99427.09
2023-03-27T14:04:43.766Z,99439.38
2023-03-27T14:07:46.616Z,99439.47
2023-03-27T14:10:56.733Z,99437.94
2023-03-27T14:13:45.636Z,99443.53
2023-03-27T14:16:40.942Z,99449.06
2023-03-27T14:19:49.131Z,99453.97
2023-03-27T14:22:23.724Z,99460.78
2023-03-27T14:25:02.779Z,99449.59
2023-03-27T14:27:36.704Z,99459.97
2023-03-27T14:30:07.559Z,99469.16
2023-03-27T14:32:37.269Z,99476.69
2023-03-27T14:35:06.213Z,99476.59
2023-03-27T14:37:42.016Z,99469.66
2023-03-27T14:40:35.285Z,99481.47
2023-03-27T14:43:07.247Z,99488.22
2023-03-27T14:45:39.418Z,99486.53
2023-03-27T14:48:34.525Z,99491.00
2023-03-27T14:51:05.554Z,99486.84
2023-03-27T14:53:44.650Z,99494.66
2023-03-27T14:56:37.467Z,99490.34
2023-03-27T14:59:27.296Z,99496.19
2023-03-27T15:01:59.550Z,99508.09
2023-03-27T15:04:30.234Z,99501.97
2023-03-27T15:07:19.816Z,99509.59
2023-03-27T15:10:26.393Z,99520.16
2023-03-27T15:13:13.256Z,99517.81
2023-03-27T15:15:47.540Z,99517.91
2023-03-27T15:18:30.971Z,99515.53
2023-03-27T15:21:04.277Z,99512.22
2023-03-27T15:23:52.487Z,99514.72
2023-03-27T15:29:48.596Z,99535.88
2023-03-27T15:32:18.961Z,99529.06
2023-03-27T15:34:51.278Z,99541.03
2023-03-27T15:37:23.390Z,99549.53
2023-03-27T15:40:13.615Z,99554.72
2023-03-27T15:43:00.995Z,99556.41
2023-03-27T15:45:39.988Z,99560.69
2023-03-27T15:48:18.995Z,99563.16
2023-03-27T15:51:07.575Z,99569.25
2023-03-27T15:53:46.659Z,99574.59
2023-03-27T15:56:21.973Z,99574.69
2023-03-27T15:58:53.729Z,99562.81
2023-03-27T16:01:26.209Z,99581.84
2023-03-27T16:03:54.355Z,99580.88
2023-03-27T16:06:36.719Z,99590.13
2023-03-27T16:09:10.157Z,99595.88
2023-03-27T16:11:43.758Z,99602.41
2023-03-27T16:14:21.664Z,99600.31
2023-03-27T16:16:49.851Z,99601.69
2023-03-27T16:19:16.704Z,99602.16
2023-03-27T16:22:03.457Z,99604.41
2023-03-27T16:24:30.623Z,99611.19
2023-03-27T16:26:57.558Z,99608.41
2023-03-27T16:29:24.919Z,99605.72
2023-03-27T16:31:51.794Z,99611.56
2023-03-27T16:34:23.219Z,99608.97
2023-03-27T16:36:50.477Z,99613.25
2023-03-27T16:39:17.379Z,99613.91
2023-03-27T16:41:44.373Z,99615.59
2023-03-27T16:44:11.225Z,99618.44
2023-03-27T16:46:38.114Z,99615.94
2023-03-27T16:49:05.562Z,99612.25
2023-03-27T16:51:44.382Z,99615.41
2023-03-27T16:54:11.927Z,99623.84
2023-03-27T16:56:39.458Z,99617.81
2023-03-27T16:59:06.597Z,99620.13
2023-03-27T17:01:33.446Z,99621.72
2023-03-27T17:04:01.359Z,99612.19
2023-03-27T17:06:42.079Z,99616.28
2023-03-27T17:09:14.229Z,99625.56
2023-03-27T17:11:43.750Z,99628.00
2023-03-27T17:14:12.965Z,99625.28
2023-03-27T17:16:42.228Z,99632.00
2023-03-27T17:19:11.047Z,99627.59
2023-03-27T17:21:39.681Z,99636.94
2023-03-27T17:24:11.435Z,99629.06
2023-03-27T17:26:39.680Z,99630.13
2023-03-27T17:29:08.477Z,99629.91
2023-03-27T17:31:35.493Z,99633.97
2023-03-27T17:34:02.474Z,99634.59
2023-03-27T17:36:40.228Z,99634.50
2023-03-27T17:39:10.388Z,99641.31
2023-03-27T17:41:37.138Z,99638.63
2023-03-27T17:44:05.634Z,99639.47
2023-03-27T17:46:34.769Z,99635.16
2023-03-27T17:49:02.042Z,99634.97
2023-03-27T17:51:28.986Z,99643.38
2023-03-27T17:53:55.910Z,99638.38
2023-03-27T17:56:23.037Z,99639.25
2023-03-27T17:58:50.331Z,99636.63
2023-03-27T18:01:19.745Z,99642.63
2023-03-27T18:03:46.965Z,99644.25
2023-03-27T18:06:17.405Z,99645.88
2023-03-27T18:08:45.208Z,99645.66
2023-03-27T18:11:13.712Z,99641.22
2023-03-27T18:13:41.367Z,99647.00
2023-03-27T18:16:10.908Z,99636.59
2023-03-27T18:18:39.100Z,99647.50
2023-03-27T18:21:08.008Z,99646.47
2023-03-27T18:23:35.190Z,99645.31
2023-03-27T18:26:06.526Z,99645.03
2023-03-27T18:28:34.211Z,99642.41
2023-03-27T18:31:03.493Z,99638.03
2023-03-27T18:33:30.760Z,99637.94
2023-03-27T18:35:58.003Z,99640.28
2023-03-27T18:38:25.838Z,99630.69
2023-03-27T18:40:55.662Z,99634.84
2023-03-27T18:43:23.463Z,99637.28
2023-03-27T18:45:58.910Z,99635.44
2023-03-27T18:48:26.783Z,99630.19
2023-03-27T18:51:04.643Z,99635.97
2023-03-27T18:53:31.784Z,99623.81
2023-03-27T18:55:59.302Z,99622.75
2023-03-27T18:58:27.859Z,99614.94
2023-03-27T19:00:57.609Z,99622.44
2023-03-27T19:03:35.275Z,99620.59
2023-03-27T19:06:06.705Z,99623.81
2023-03-27T19:08:38.138Z,99617.69
2023-03-27T19:11:06.193Z,99622.59
2023-03-27T19:13:54.539Z,99616.56
2023-03-27T19:16:33.523Z,99619.81
2023-03-27T19:19:27.895Z,99612.88
2023-03-27T19:22:16.189Z,99612.00
2023-03-27T19:24:49.390Z,99621.63
2023-03-27T19:27:23.460Z,99611.50
2023-03-27T19:29:55.459Z,99614.34
2023-03-27T19:32:24.578Z,99619.44
2023-03-27T19:34:51.801Z,99610.16
2023-03-27T19:37:21.951Z,99606.81
2023-03-27T19:39:52.494Z,99599.97
2023-03-27T19:42:21.301Z,99602.44
2023-03-27T19:44:51.035Z,99595.50
2023-03-27T19:47:18.554Z,99587.81
2023-03-27T19:49:46.495Z,99583.38
2023-03-27T19:52:31.086Z,99577.22
2023-03-27T19:55:02.139Z,99573.66
2023-03-27T19:57:31.577Z,99576.09
2023-03-27T19:59:58.824Z,99592.16
2023-03-27T20:02:29.196Z,99580.00
2023-03-27T20:05:00.659Z,99578.00
2023-03-27T20:07:30.058Z,99577.03
2023-03-27T20:09:56.926Z,99571.84
2023-03-27T20:12:24.976Z,99576.00
2023-03-27T20:15:02.978Z,99570.84
2023-03-27T20:17:37.292Z,99577.72
2023-03-27T20:20:06.262Z,99576.00
2023-03-27T20:22:36.598Z,99568.31
2023-03-27T20:25:10.303Z,99561.47
2023-03-27T20:27:38.795Z,99560.50
2023-03-27T20:30:37.559Z,99551.06
2023-03-27T20:33:05.559Z,99556.03
2023-03-27T20:35:33.715Z,99548.19
2023-03-27T20:38:04.621Z,99547.31
2023-03-27T20:40:52.858Z,99544.81
2023-03-27T20:43:27.058Z,99547.38
2023-03-27T20:45:55.081Z,99544.78
2023-03-27T20:48:22.181Z,99538.72
2023-03-27T20:50:55.465Z,99547.28
2023-03-27T20:53:26.300Z,99535.31
2023-03-27T20:56:00.031Z,99538.63
2023-03-27T20:58:28.114Z,99537.78
2023-03-27T21:00:56.198Z,99531.72
2023-03-27T21:03:23.309Z,99529.97
2023-03-27T21:05:50.620Z,99532.47
2023-03-27T21:08:17.491Z,99526.44
2023-03-27T21:10:52.474Z,99516.22
2023-03-27T21:13:19.411Z,99515.38
2023-03-27T21:15:46.281Z,99520.50
2023-03-27T21:18:13.171Z,99512.78
2023-03-27T21:20:39.959Z,99511.03
2023-03-27T21:23:06.750Z,99506.81
2023-03-27T21:25:34.601Z,99503.41
2023-03-27T21:28:06.004Z,99502.59
2023-03-27T21:30:46.801Z,99500.84
2023-03-27T21:33:16.185Z,99493.13
2023-03-27T21:35:46.156Z,99483.06
2023-03-27T21:38:14.318Z,99489.16
2023-03-27T21:40:41.293Z,99480.84
2023-03-27T21:43:09.099Z,99487.88
2023-03-27T21:45:36.540Z,99479.56
2023-03-27T21:48:03.905Z,99482.16
2023-03-27T21:50:30.815Z,99477.94
2023-03-27T21:52:57.713Z,99483.19
2023-03-27T21:55:24.537Z,99469.75
2023-03-27T21:57:52.346Z,99479.94
2023-03-27T22:00:20.187Z,99471.47
2023-03-27T22:02:47.161Z,99475.81
2023-03-27T22:05:14.144Z,99476.69
2023-03-27T22:07:41.053Z,99466.53
2023-03-27T22:10:08.387Z,99471.66
2023-03-27T22:12:36.389Z,99473.44
2023-03-27T22:15:04.486Z,99475.16
2023-03-27T22:17:31.471Z,99464.03
2023-03-27T22:19:59.205Z,99471.59
2023-03-27T22:22:26.194Z,99468.22
2023-03-27T22:24:53.018Z,99463.97
2023-03-27T22:27:19.836Z,99465.78
2023-03-27T22:29:46.668Z,99462.47
2023-03-27T22:32:13.490Z,99459.13
2023-03-27T22:34:40.418Z,99466.94
2023-03-27T22:37:07.432Z,99461.16
2023-03-27T22:39:34.297Z,99458.06
2023-03-27T22:42:01.346Z,99461.69
2023-03-27T22:44:30.859Z,99466.19
2023-03-27T22:46:58.932Z,99472.41
2023-03-27T22:49:26.328Z,99470.81
2023-03-27T22:51:53.139Z,99466.78
2023-03-27T22:54:20.331Z,99482.38
2023-03-27T22:56:47.887Z,99481.84
2023-03-27T22:59:15.664Z,99481.31
2023-03-27T23:01:42.628Z,99486.59
2023-03-27T23:04:09.593Z,99481.69
2023-03-27T23:06:36.416Z,99478.47
2023-03-27T23:09:03.207Z,99477.00
2023-03-27T23:11:30.532Z,99476.34
2023-03-27T23:13:57.289Z,99471.28
2023-03-27T23:16:24.286Z,99485.88
2023-03-27T23:18:51.059Z,99480.13
2023-03-27T23:21:18.271Z,99475.13
2023-03-27T23:23:45.394Z,99478.69
2023-03-27T23:26:12.900Z,99480.47
2023-03-27T23:28:41.354Z,99471.16
2023-03-27T23:31:12.484Z,99472.19
2023-03-27T23:33:41.299Z,99472.34
2023-03-27T23:36:11.379Z,99468.97
2023-03-27T23:38:38.966Z,99467.22
2023-03-27T23:41:07.144Z,99465.59
2023-03-27T23:43:34.568Z,99455.31
2023-03-27T23:46:01.838Z,99459.66
2023-03-27T23:48:29.700Z,99453.75
2023-03-27T23:50:57.240Z,99444.34
2023-03-27T23:53:25.822Z,99439.22
2023-03-27T23:55:53.552Z,99440.94
2023-03-27T23:58:20.350Z,99434.09
